logo
Search for airport 
image banner adimage banner adimage banner ad
image banner ad

FASX - Swellendam / Hendrik Swellengrebel

Located in Swellendam, South Africa

ICAO - FASX, IATA -

Data provided by Airmate  

General information

Coordinates: S34°3'0" E20°29'0"
Elevation is 407 feet MSL.
 
View others Airports in Western Cape

Operational data

Special qualification required
Current time UTC:
Current local time:
Weather at : - ( 0 km )
METAR: PAMK 230542Z AUTO 00000KT 10SM SCT023 OVC065 01/00 A2991 RMK AO2 UPB08E20 P0000 FZRANO
View NOTAMs / SUP AIP / TFR affecting this airport [VIEW]
Communications frequencies: [VIEW]

Runways:

RWY identifierQFULength (ft)Width (ft)SurfaceLDA (ft)
0640°1800150GRE
24220°1800150GRE
15126°329139LAT
33306°329139LAT

Airport contact information

Address: Swellendam South Africa

Satellite view of FASX